Time;durP1;ratioP1;P1;durP2;ratioP2;P2;SDS_P1;SDS_P2;PMS_P1;PMS_P2;Temp;Humidity;BMP_temperature;BMP_pressure;BME280_temperature;BME280_humidity;BME280_pressure;Samples;Min_cycle;Max_cycle;Signal;HPM_P1;HPM_P2
2021/08/26 00:01:01;;;;;;;10.45;8.10;;;15.70;99.90;;;;;;2072231;28;20140;-70
2021/08/26 00:06:01;;;;;;;13.63;10.10;;;15.50;99.90;;;;;;2096634;28;20025;-70
2021/08/26 00:07:02;;;;;;;12.43;9.70;;;15.50;99.90;;;;;;2096759;28;20028;-70
2021/08/26 00:08:03;;;;;;;14.40;10.90;;;15.40;99.90;;;;;;2079421;28;20035;-70
2021/08/26 00:09:04;;;;;;;13.93;10.13;;;15.40;99.90;;;;;;2079756;28;20044;-70
2021/08/26 00:10:08;;;;;;;14.65;11.10;;;15.40;99.90;;;;;;2088944;28;20369;-70
2021/08/26 00:11:09;;;;;;;12.80;10.10;;;15.40;99.90;;;;;;2089016;28;20032;-69
2021/08/26 00:12:11;;;;;;;16.20;11.68;;;15.30;99.90;;;;;;2096548;28;20024;-69
2021/08/26 00:13:13;;;;;;;16.20;11.23;;;15.30;99.90;;;;;;2096307;28;20107;-69
2021/08/26 00:14:15;;;;;;;12.70;10.38;;;15.30;99.90;;;;;;2071890;28;20488;-71
2021/08/26 00:15:16;;;;;;;15.52;12.13;;;15.30;99.90;;;;;;2072439;28;20358;-69
2021/08/26 00:16:21;;;;;;;16.60;12.60;;;15.30;99.90;;;;;;2089059;28;20032;-70
2021/08/26 00:17:21;;;;;;;17.33;12.20;;;15.30;99.90;;;;;;2088608;28;20023;-69
2021/08/26 00:18:23;;;;;;;16.80;12.43;;;15.30;99.90;;;;;;2088703;28;20032;-69
2021/08/26 00:19:24;;;;;;;13.57;10.75;;;15.30;99.90;;;;;;2079714;28;20029;-69
2021/08/26 00:20:25;;;;;;;17.08;12.73;;;15.30;99.90;;;;;;2080108;28;20021;-71
2021/08/26 00:21:28;;;;;;;17.30;14.43;;;15.20;99.90;;;;;;2080298;28;20463;-71
2021/08/26 00:22:28;;;;;;;17.75;14.30;;;15.30;99.90;;;;;;2088908;28;20037;-71
2021/08/26 00:23:29;;;;;;;16.45;13.65;;;15.20;99.90;;;;;;2080114;28;20029;-71
2021/08/26 00:24:30;;;;;;;18.23;14.90;;;15.20;99.90;;;;;;2080051;28;20420;-68
2021/08/26 00:25:31;;;;;;;16.60;14.48;;;15.20;99.90;;;;;;2088984;28;20060;-70
2021/08/26 00:26:33;;;;;;;16.23;13.30;;;15.20;99.90;;;;;;2088919;28;20116;-71
2021/08/26 00:27:34;;;;;;;21.17;16.08;;;15.20;99.90;;;;;;2088118;28;20064;-69
2021/08/26 00:28:35;;;;;;;19.02;15.88;;;15.20;99.90;;;;;;2088865;28;20025;-72
2021/08/26 00:29:35;;;;;;;18.45;14.63;;;15.20;99.90;;;;;;2088951;28;20443;-72
2021/08/26 00:30:36;;;;;;;18.98;14.35;;;15.20;99.90;;;;;;2088932;28;20036;-71
2021/08/26 00:31:37;;;;;;;16.88;13.73;;;15.20;99.90;;;;;;2088820;28;20079;-71
2021/08/26 00:32:37;;;;;;;19.50;15.60;;;15.20;99.90;;;;;;2088805;28;20025;-69
2021/08/26 00:33:38;;;;;;;18.17;15.40;;;15.20;99.90;;;;;;2088860;28;20032;-69
2021/08/26 00:34:38;;;;;;;20.88;16.15;;;15.20;99.90;;;;;;2088885;28;20044;-69
2021/08/26 00:35:40;;;;;;;19.52;16.17;;;15.10;99.90;;;;;;2088887;28;20036;-69
2021/08/26 00:36:40;;;;;;;18.83;16.02;;;15.10;99.90;;;;;;2089026;28;20468;-70
2021/08/26 00:37:41;;;;;;;21.52;16.02;;;15.10;99.90;;;;;;2088553;28;20025;-69
2021/08/26 00:38:41;;;;;;;18.13;14.68;;;15.10;99.90;;;;;;2088557;28;20464;-69
2021/08/26 00:39:42;;;;;;;19.88;16.08;;;15.20;99.90;;;;;;2096491;28;20101;-69
2021/08/26 00:40:43;;;;;;;19.50;15.88;;;15.10;99.90;;;;;;2096518;28;20031;-69
2021/08/26 00:41:43;;;;;;;18.70;14.65;;;15.10;99.90;;;;;;2096610;28;20036;-69
2021/08/26 00:42:44;;;;;;;18.73;14.73;;;15.10;99.90;;;;;;2096527;28;20043;-69
2021/08/26 00:43:45;;;;;;;17.58;14.60;;;15.10;99.90;;;;;;2089018;28;20037;-69
2021/08/26 00:44:46;;;;;;;17.30;14.02;;;15.10;99.90;;;;;;2080319;28;20101;-69
2021/08/26 00:45:49;;;;;;;17.45;14.70;;;15.10;99.90;;;;;;2080299;28;20030;-69
2021/08/26 00:46:50;;;;;;;17.65;14.30;;;15.10;99.90;;;;;;2080300;28;20393;-68
2021/08/26 00:47:50;;;;;;;19.85;15.10;;;15.10;99.90;;;;;;2079708;28;20076;-72
2021/08/26 00:48:51;;;;;;;20.75;16.00;;;15.10;99.90;;;;;;2088685;28;20029;-70
2021/08/26 00:49:56;;;;;;;21.23;15.45;;;15.00;99.90;;;;;;2088864;28;20446;-70
2021/08/26 00:50:57;;;;;;;19.75;15.10;;;15.00;99.90;;;;;;2089056;28;20025;-69
2021/08/26 00:51:59;;;;;;;19.88;15.48;;;15.00;99.90;;;;;;2080180;28;20128;-69
2021/08/26 00:52:59;;;;;;;19.33;15.48;;;15.00;99.90;;;;;;2079905;28;20073;-70
2021/08/26 00:54:00;;;;;;;19.33;15.05;;;15.00;99.90;;;;;;2088913;28;20028;-70
2021/08/26 00:55:01;;;;;;;18.10;15.02;;;15.00;99.90;;;;;;2088947;28;20028;-70
2021/08/26 00:56:01;;;;;;;19.02;15.65;;;14.90;99.90;;;;;;2080377;28;20113;-70
2021/08/26 00:57:03;;;;;;;19.95;15.35;;;15.00;99.90;;;;;;2080231;28;20037;-71
2021/08/26 00:58:04;;;;;;;20.50;15.25;;;15.00;99.90;;;;;;2088562;28;20112;-70
2021/08/26 00:59:06;;;;;;;20.50;15.32;;;14.90;99.90;;;;;;2089327;28;20052;-70
2021/08/26 01:00:11;;;;;;;17.95;14.75;;;14.90;99.90;;;;;;2089365;28;20358;-70
2021/08/26 01:01:12;;;;;;;18.08;14.23;;;14.90;99.90;;;;;;2089609;28;20480;-70
2021/08/26 01:02:37;;;;;;;20.50;15.43;;;14.90;99.90;;;;;;2080411;28;20032;-69
2021/08/26 01:03:52;;;;;;;20.35;15.48;;;14.90;99.90;;;;;;2083570;28;20037;-69
2021/08/26 01:05:01;;;;;;;19.38;15.90;;;15.00;99.90;;;;;;2088647;28;20053;-69
2021/08/26 01:06:11;;;;;;;16.05;13.13;;;14.90;99.90;;;;;;2079799;28;20440;-69
2021/08/26 01:07:29;;;;;;;19.13;15.25;;;15.00;99.90;;;;;;2080791;28;20030;-69
2021/08/26 01:08:37;;;;;;;17.08;13.93;;;15.00;99.90;;;;;;2088297;28;20399;-69
2021/08/26 01:09:49;;;;;;;20.10;15.27;;;15.00;99.90;;;;;;2088101;28;20037;-69
2021/08/26 01:10:57;;;;;;;19.98;15.15;;;14.90;99.90;;;;;;2088568;28;20044;-69
2021/08/26 01:12:00;;;;;;;17.25;13.23;;;14.90;99.90;;;;;;2088740;28;20021;-70
2021/08/26 01:13:02;;;;;;;19.80;14.13;;;14.90;99.90;;;;;;2079961;28;20037;-69
2021/08/26 01:14:03;;;;;;;17.58;14.00;;;14.90;99.90;;;;;;2079843;28;20029;-69
2021/08/26 01:15:05;;;;;;;17.27;13.10;;;14.90;99.90;;;;;;2079880;28;20096;-69
2021/08/26 01:16:10;;;;;;;18.15;14.07;;;14.90;99.90;;;;;;2079892;28;20635;-70
2021/08/26 01:17:22;;;;;;;17.75;14.70;;;14.90;99.90;;;;;;2080458;28;20025;-70
2021/08/26 01:18:23;;;;;;;18.55;15.05;;;14.90;99.90;;;;;;2089009;28;20074;-70
2021/08/26 01:19:23;;;;;;;18.85;15.20;;;14.90;99.90;;;;;;2088309;28;20480;-70
2021/08/26 01:20:24;;;;;;;18.05;14.90;;;14.90;99.90;;;;;;2088879;28;20025;-69
2021/08/26 01:21:25;;;;;;;15.63;13.27;;;14.90;99.90;;;;;;2088626;28;20479;-69
2021/08/26 01:22:28;;;;;;;17.92;13.45;;;14.90;99.90;;;;;;2088694;28;20037;-69
2021/08/26 01:23:35;;;;;;;16.38;13.15;;;14.90;99.90;;;;;;2088779;28;20029;-69
2021/08/26 01:24:36;;;;;;;18.45;14.40;;;14.90;99.90;;;;;;2088703;28;20028;-69
2021/08/26 01:25:43;;;;;;;19.40;15.68;;;15.00;99.90;;;;;;2088801;28;20651;-69
2021/08/26 01:26:52;;;;;;;17.10;14.55;;;15.00;99.90;;;;;;2079825;28;20072;-69
2021/08/26 01:28:04;;;;;;;16.20;12.70;;;14.90;99.90;;;;;;2080515;28;20026;-71
2021/08/26 01:29:06;;;;;;;17.05;12.88;;;14.90;99.90;;;;;;2088326;28;20117;-72
2021/08/26 01:30:11;;;;;;;16.27;13.82;;;15.00;99.90;;;;;;2088676;28;20074;-73
2021/08/26 01:31:12;;;;;;;14.80;13.10;;;15.00;99.90;;;;;;2088547;28;20388;-71
2021/08/26 01:32:17;;;;;;;16.27;13.52;;;15.00;99.90;;;;;;2088603;28;20021;-70
2021/08/26 01:33:19;;;;;;;15.40;12.50;;;15.00;99.90;;;;;;2088509;28;20381;-70
2021/08/26 01:34:21;;;;;;;14.32;12.55;;;14.90;99.90;;;;;;2088582;28;20112;-70
2021/08/26 01:35:26;;;;;;;15.65;13.32;;;15.00;99.90;;;;;;2079842;28;20108;-70
2021/08/26 01:36:29;;;;;;;16.23;14.30;;;15.00;99.90;;;;;;2080435;28;20039;-70
2021/08/26 01:37:30;;;;;;;13.25;11.50;;;14.90;99.90;;;;;;2088028;28;20029;-70
2021/08/26 01:38:31;;;;;;;15.82;13.52;;;14.90;99.90;;;;;;2088560;28;20590;-71
2021/08/26 01:39:31;;;;;;;18.55;14.50;;;14.90;99.90;;;;;;2088257;28;20025;-70
2021/08/26 01:40:37;;;;;;;13.65;12.25;;;14.90;99.90;;;;;;2088484;28;20075;-70
2021/08/26 01:41:52;;;;;;;15.57;13.90;;;14.90;99.90;;;;;;2088774;28;20032;-70
2021/08/26 01:42:53;;;;;;;17.60;14.38;;;14.90;99.90;;;;;;2088818;28;20033;-70
2021/08/26 01:43:53;;;;;;;14.45;12.30;;;14.90;99.90;;;;;;2088516;28;20134;-70
2021/08/26 01:44:57;;;;;;;15.02;12.57;;;14.90;99.90;;;;;;2088690;28;20071;-70
2021/08/26 01:45:57;;;;;;;13.55;11.60;;;14.90;99.90;;;;;;2088547;28;20765;-70
2021/08/26 01:47:04;;;;;;;14.75;12.10;;;14.90;99.90;;;;;;2088446;28;20053;-70
2021/08/26 01:48:05;;;;;;;14.60;12.93;;;14.90;99.90;;;;;;2088221;28;20048;-70
2021/08/26 01:49:05;;;;;;;14.75;11.63;;;14.90;99.90;;;;;;2088654;28;20032;-70
2021/08/26 01:50:07;;;;;;;12.40;11.07;;;14.90;99.90;;;;;;2088744;28;20400;-70
2021/08/26 01:51:07;;;;;;;13.30;11.32;;;14.90;99.90;;;;;;2088958;28;20044;-70
2021/08/26 01:52:08;;;;;;;14.15;12.60;;;14.90;99.90;;;;;;2079762;28;20072;-70
2021/08/26 01:53:09;;;;;;;14.93;12.75;;;14.90;99.90;;;;;;2079843;28;20057;-70
2021/08/26 01:54:10;;;;;;;13.90;12.15;;;14.90;99.90;;;;;;2079890;28;20030;-70
2021/08/26 01:55:10;;;;;;;15.13;13.07;;;14.90;99.90;;;;;;2088895;28;20031;-70
2021/08/26 01:56:11;;;;;;;13.48;12.07;;;14.90;99.90;;;;;;2096502;28;20484;-70
2021/08/26 01:57:11;;;;;;;12.35;10.38;;;14.90;99.90;;;;;;2087820;28;20033;-70
2021/08/26 01:58:13;;;;;;;11.55;9.70;;;14.90;99.90;;;;;;2080139;28;20044;-70
2021/08/26 01:59:14;;;;;;;12.50;11.15;;;14.90;99.90;;;;;;2088974;28;20025;-70
2021/08/26 02:00:16;;;;;;;14.05;12.55;;;15.00;99.90;;;;;;2089765;28;20054;-70
2021/08/26 02:01:16;;;;;;;13.63;12.20;;;14.90;99.90;;;;;;2080873;28;20036;-71
2021/08/26 02:02:17;;;;;;;13.60;12.20;;;14.90;99.90;;;;;;2080192;28;20036;-71
2021/08/26 02:03:18;;;;;;;12.48;11.18;;;14.90;99.90;;;;;;2089877;28;20024;-71
2021/08/26 02:04:19;;;;;;;13.77;12.27;;;14.90;99.90;;;;;;2090038;28;20116;-71
2021/08/26 02:05:19;;;;;;;12.35;11.15;;;14.90;99.90;;;;;;2090387;28;20029;-71
2021/08/26 02:10:49;;;;;;;12.65;11.23;;;15.00;99.90;;;;;;2081945;28;20025;-70
2021/08/26 02:11:50;;;;;;;12.27;10.98;;;15.00;99.90;;;;;;2088851;28;20033;-72
2021/08/26 02:12:51;;;;;;;11.68;10.50;;;15.00;99.90;;;;;;2084366;28;20064;-71
2021/08/26 02:13:52;;;;;;;12.65;11.35;;;15.00;99.90;;;;;;2085227;28;20407;-71
2021/08/26 02:14:52;;;;;;;13.45;12.02;;;15.00;99.90;;;;;;2080288;28;20038;-70
2021/08/26 02:15:53;;;;;;;12.52;11.35;;;15.00;99.90;;;;;;2079953;28;20036;-71
2021/08/26 02:16:54;;;;;;;12.60;11.32;;;15.00;99.90;;;;;;2080385;28;20080;-70
2021/08/26 02:17:54;;;;;;;13.38;12.07;;;15.00;99.90;;;;;;2080277;28;20159;-70
2021/08/26 02:18:55;;;;;;;11.95;10.82;;;15.00;99.90;;;;;;2088118;28;20033;-70
2021/08/26 02:19:56;;;;;;;12.70;11.50;;;15.00;99.90;;;;;;2088476;28;20598;-71
2021/08/26 02:20:56;;;;;;;12.60;11.20;;;15.00;99.90;;;;;;2072572;28;20025;-70
2021/08/26 02:21:57;;;;;;;11.20;10.10;;;14.90;99.90;;;;;;2073086;28;20401;-70
2021/08/26 02:22:57;;;;;;;10.27;9.23;;;14.90;99.90;;;;;;2089974;28;20404;-70
2021/08/26 02:23:58;;;;;;;10.63;9.52;;;14.90;99.90;;;;;;2089816;28;20449;-70
2021/08/26 02:24:59;;;;;;;11.77;10.68;;;14.90;99.90;;;;;;2081068;28;20520;-70
2021/08/26 02:26:00;;;;;;;12.15;10.95;;;15.00;99.90;;;;;;2080948;28;20029;-70
2021/08/26 02:27:00;;;;;;;12.02;10.85;;;15.00;99.90;;;;;;2089773;28;20060;-70
2021/08/26 02:28:01;;;;;;;11.95;10.75;;;15.00;99.90;;;;;;2080658;28;20053;-70
2021/08/26 02:29:04;;;;;;;11.25;10.13;;;15.00;99.90;;;;;;2080080;28;20037;-71
2021/08/26 02:30:07;;;;;;;10.75;9.65;;;14.90;99.90;;;;;;2081144;28;20026;-71
2021/08/26 02:31:07;;;;;;;11.15;10.05;;;14.90;99.90;;;;;;2089678;28;20051;-71
2021/08/26 02:32:08;;;;;;;12.05;10.85;;;14.90;99.90;;;;;;2089800;28;20492;-71
2021/08/26 02:33:09;;;;;;;11.52;10.43;;;14.90;99.90;;;;;;2089690;28;20404;-70
2021/08/26 02:34:10;;;;;;;10.68;9.68;;;14.90;99.90;;;;;;2089740;28;20032;-71
2021/08/26 02:35:10;;;;;;;11.10;10.02;;;14.90;99.90;;;;;;2089688;28;20029;-71
2021/08/26 02:36:11;;;;;;;10.38;9.38;;;15.00;99.90;;;;;;2080696;28;20121;-70
2021/08/26 02:37:12;;;;;;;10.90;9.80;;;15.00;99.90;;;;;;2080893;28;20144;-70
2021/08/26 02:38:12;;;;;;;9.45;8.55;;;15.00;99.90;;;;;;2089699;28;20059;-71
2021/08/26 02:39:13;;;;;;;10.13;9.20;;;15.00;99.90;;;;;;2088728;28;20031;-70
2021/08/26 02:40:13;;;;;;;11.23;10.10;;;15.00;99.90;;;;;;2089645;28;20031;-71
2021/08/26 02:41:14;;;;;;;11.60;10.40;;;15.00;99.90;;;;;;2089413;28;20059;-70
2021/08/26 02:42:15;;;;;;;10.95;9.93;;;15.00;99.90;;;;;;2089714;28;20025;-71
2021/08/26 02:43:15;;;;;;;11.02;9.95;;;14.90;99.90;;;;;;2089757;28;20066;-70
2021/08/26 02:44:16;;;;;;;10.90;9.90;;;14.90;99.90;;;;;;2089724;28;20128;-70
2021/08/26 02:45:17;;;;;;;9.85;8.95;;;15.00;99.90;;;;;;2089734;28;20025;-70
2021/08/26 02:46:17;;;;;;;10.88;9.82;;;14.90;99.90;;;;;;2089865;28;20222;-70
2021/08/26 02:47:18;;;;;;;11.30;9.75;;;15.00;99.90;;;;;;2081056;28;20030;-70
2021/08/26 02:48:18;;;;;;;11.45;10.25;;;15.00;99.90;;;;;;2081072;28;20433;-70
2021/08/26 02:49:19;;;;;;;10.38;9.38;;;15.00;99.90;;;;;;2088915;28;20029;-70
2021/08/26 02:50:19;;;;;;;12.27;11.07;;;15.00;99.90;;;;;;2089273;28;20031;-70
2021/08/26 02:51:20;;;;;;;12.15;10.45;;;14.90;99.90;;;;;;2089532;28;20404;-70
2021/08/26 02:52:21;;;;;;;8.20;6.90;;;15.00;99.90;;;;;;2080724;28;20053;-69
2021/08/26 02:53:21;;;;;;;8.43;5.70;;;15.00;99.90;;;;;;2072495;28;20025;-69
2021/08/26 02:54:22;;;;;;;9.70;5.20;;;14.90;99.90;;;;;;2080647;28;20038;-70
2021/08/26 02:55:22;;;;;;;6.88;4.32;;;14.80;99.90;;;;;;2089569;28;20037;-70
2021/08/26 02:56:23;;;;;;;7.80;4.60;;;14.70;99.90;;;;;;2089588;28;20033;-70
2021/08/26 02:57:23;;;;;;;6.93;4.45;;;14.70;99.90;;;;;;2089471;28;20033;-71
2021/08/26 02:58:25;;;;;;;6.85;4.78;;;14.60;99.90;;;;;;2080539;28;20026;-71
2021/08/26 02:59:25;;;;;;;7.85;5.03;;;14.50;99.90;;;;;;2079845;28;20052;-71
2021/08/26 03:00:26;;;;;;;8.80;5.20;;;14.40;99.90;;;;;;2080671;28;20025;-71
2021/08/26 03:01:26;;;;;;;6.18;4.57;;;14.30;99.90;;;;;;2089375;28;20017;-71
2021/08/26 03:02:27;;;;;;;7.85;5.20;;;14.20;99.90;;;;;;2080616;28;20021;-72
2021/08/26 03:03:28;;;;;;;7.53;4.18;;;14.30;99.90;;;;;;2080742;28;20034;-71
2021/08/26 03:04:28;;;;;;;7.20;4.25;;;14.20;99.90;;;;;;2089357;28;20029;-72
2021/08/26 03:05:29;;;;;;;6.22;4.30;;;14.20;99.90;;;;;;2089337;28;20103;-72
2021/08/26 03:06:29;;;;;;;7.43;4.50;;;14.10;99.90;;;;;;2089514;28;20037;-71
2021/08/26 03:07:30;;;;;;;5.60;3.85;;;14.10;99.90;;;;;;2089407;28;20064;-71
2021/08/26 03:08:31;;;;;;;6.30;4.30;;;14.10;99.90;;;;;;2080570;28;20029;-72
2021/08/26 03:09:32;;;;;;;8.85;4.40;;;14.10;99.90;;;;;;2079939;28;20519;-71
2021/08/26 03:10:32;;;;;;;7.05;3.97;;;14.00;99.90;;;;;;2089378;28;20032;-72
2021/08/26 03:11:33;;;;;;;7.22;4.07;;;14.00;99.90;;;;;;2089245;28;20357;-72
2021/08/26 03:12:33;;;;;;;6.32;3.85;;;14.00;99.90;;;;;;2089306;28;20129;-72
2021/08/26 03:13:34;;;;;;;6.32;3.90;;;14.00;99.90;;;;;;2089389;28;20052;-72
2021/08/26 03:14:34;;;;;;;7.70;4.07;;;14.00;99.90;;;;;;2089439;28;20101;-72
2021/08/26 03:15:35;;;;;;;7.40;4.00;;;13.90;99.90;;;;;;2089354;28;20480;-72
2021/08/26 03:16:36;;;;;;;6.88;4.00;;;13.90;99.90;;;;;;2089389;28;20491;-72
2021/08/26 03:17:36;;;;;;;7.15;3.90;;;13.90;99.90;;;;;;2089365;28;20082;-72
2021/08/26 03:18:37;;;;;;;6.15;4.00;;;13.90;99.90;;;;;;2089034;28;20031;-72
2021/08/26 03:19:37;;;;;;;5.82;4.18;;;13.90;99.90;;;;;;2088583;28;20025;-72
2021/08/26 03:20:38;;;;;;;6.90;3.90;;;13.90;99.90;;;;;;2089368;28;20469;-72
2021/08/26 03:21:39;;;;;;;8.88;4.30;;;13.90;99.90;;;;;;2089322;28;20429;-72
2021/08/26 03:22:40;;;;;;;6.65;4.13;;;13.90;99.90;;;;;;2089321;28;20029;-72
2021/08/26 03:23:40;;;;;;;7.03;3.90;;;14.00;99.90;;;;;;2089337;28;20040;-71
2021/08/26 03:24:41;;;;;;;5.82;3.88;;;14.00;99.90;;;;;;2089238;28;20119;-71
2021/08/26 03:25:42;;;;;;;7.60;3.95;;;13.90;99.90;;;;;;2080376;28;20025;-72
2021/08/26 03:26:43;;;;;;;8.35;4.35;;;13.90;99.90;;;;;;2080526;28;20120;-72
2021/08/26 03:27:44;;;;;;;7.80;4.43;;;13.90;99.90;;;;;;2089287;28;20036;-72
2021/08/26 03:28:45;;;;;;;8.30;4.50;;;13.90;99.90;;;;;;2088907;28;20563;-72
2021/08/26 03:29:46;;;;;;;8.63;4.43;;;13.90;99.90;;;;;;2088822;28;20032;-72
2021/08/26 03:30:47;;;;;;;10.77;4.60;;;13.90;99.90;;;;;;2089088;28;20476;-72
2021/08/26 03:31:47;;;;;;;9.00;4.25;;;13.80;99.90;;;;;;2088725;28;20032;-72
2021/08/26 03:32:48;;;;;;;7.55;4.25;;;13.80;99.90;;;;;;2088946;28;20032;-72
2021/08/26 03:33:49;;;;;;;8.10;4.47;;;13.80;99.90;;;;;;2080284;28;20473;-72
2021/08/26 03:34:49;;;;;;;7.78;4.10;;;13.80;99.90;;;;;;2080401;28;20068;-72
2021/08/26 03:35:50;;;;;;;7.07;4.05;;;13.80;99.90;;;;;;2089371;28;20024;-72
2021/08/26 03:36:50;;;;;;;9.07;4.28;;;13.80;99.90;;;;;;2080372;28;20433;-72
2021/08/26 03:37:51;;;;;;;9.20;4.78;;;13.80;99.90;;;;;;2080416;28;20079;-72
2021/08/26 03:38:52;;;;;;;9.98;5.10;;;13.80;99.90;;;;;;2088744;28;20028;-72
2021/08/26 03:39:53;;;;;;;8.68;4.32;;;13.70;99.90;;;;;;2089125;28;20083;-72
2021/08/26 03:40:53;;;;;;;7.25;4.53;;;13.80;99.90;;;;;;2089233;28;20045;-72
2021/08/26 03:41:54;;;;;;;7.60;4.70;;;13.80;99.90;;;;;;2089164;28;20025;-71
2021/08/26 03:42:54;;;;;;;7.00;4.30;;;13.80;99.90;;;;;;2089136;28;20052;-72
2021/08/26 03:43:55;;;;;;;7.20;4.35;;;13.70;99.90;;;;;;2089116;28;20808;-71
2021/08/26 03:44:56;;;;;;;9.82;4.60;;;13.70;99.90;;;;;;2089402;28;20063;-72
2021/08/26 03:45:56;;;;;;;8.18;4.80;;;13.70;99.90;;;;;;2080420;28;20033;-72
2021/08/26 03:46:57;;;;;;;8.73;4.57;;;13.70;99.90;;;;;;2080404;28;20072;-71
2021/08/26 03:47:57;;;;;;;7.93;4.72;;;13.70;99.90;;;;;;2089277;28;20025;-71
2021/08/26 03:48:58;;;;;;;10.32;5.20;;;13.70;99.90;;;;;;2088461;28;20095;-71
2021/08/26 03:49:58;;;;;;;10.77;5.00;;;13.70;99.90;;;;;;2089258;28;20480;-71
2021/08/26 03:51:01;;;;;;;11.85;5.00;;;13.70;99.90;;;;;;2089121;28;20037;-71
2021/08/26 03:52:02;;;;;;;8.18;4.78;;;13.70;99.90;;;;;;2089496;28;20036;-72
2021/08/26 03:53:03;;;;;;;7.72;4.90;;;13.70;99.90;;;;;;2090523;28;20020;-73
2021/08/26 03:54:03;;;;;;;7.68;4.75;;;13.70;99.90;;;;;;2089639;28;20837;-71
2021/08/26 03:55:05;;;;;;;8.07;4.47;;;13.70;99.90;;;;;;2089192;28;20055;-73
2021/08/26 03:56:06;;;;;;;9.23;4.72;;;13.70;99.90;;;;;;2088981;28;20036;-71
2021/08/26 03:57:06;;;;;;;10.35;4.88;;;13.70;99.90;;;;;;2089195;28;20021;-72
2021/08/26 03:58:07;;;;;;;8.95;4.65;;;13.70;99.90;;;;;;2089143;28;20025;-72
2021/08/26 03:59:07;;;;;;;9.25;4.80;;;13.70;99.90;;;;;;2088394;28;20033;-73
2021/08/26 04:00:08;;;;;;;8.50;4.60;;;13.70;99.90;;;;;;2089222;28;20032;-72
2021/08/26 04:01:09;;;;;;;8.45;4.63;;;13.70;99.90;;;;;;2089133;28;20071;-72
2021/08/26 04:02:10;;;;;;;9.05;4.57;;;13.70;99.90;;;;;;2089376;28;20029;-72
2021/08/26 04:03:11;;;;;;;10.45;4.90;;;13.70;99.90;;;;;;2089078;28;20460;-73
2021/08/26 04:04:11;;;;;;;6.63;4.60;;;13.70;99.90;;;;;;2089158;28;20025;-72
2021/08/26 04:05:12;;;;;;;7.63;4.80;;;13.70;99.90;;;;;;2089082;28;20110;-72
2021/08/26 04:06:12;;;;;;;9.10;4.45;;;13.70;99.90;;;;;;2080109;28;20109;-73
2021/08/26 04:07:15;;;;;;;5.93;4.22;;;13.70;99.90;;;;;;2080176;28;20025;-73
2021/08/26 04:08:15;;;;;;;7.57;4.15;;;13.70;99.90;;;;;;2080430;28;20527;-73
2021/08/26 04:09:16;;;;;;;8.38;4.75;;;13.70;99.90;;;;;;2088244;28;20036;-73
2021/08/26 04:10:17;;;;;;;9.50;4.78;;;13.70;99.90;;;;;;2088994;28;20032;-73
2021/08/26 04:11:17;;;;;;;11.82;5.00;;;13.70;99.90;;;;;;2080172;28;20432;-72
2021/08/26 04:12:18;;;;;;;11.50;5.53;;;13.70;99.90;;;;;;2072139;28;20056;-72
2021/08/26 04:13:20;;;;;;;10.93;5.03;;;13.70;99.90;;;;;;2080171;28;20099;-72
2021/08/26 04:14:20;;;;;;;11.52;5.10;;;13.60;99.90;;;;;;2089049;28;20029;-71
2021/08/26 04:15:21;;;;;;;8.73;4.68;;;13.70;99.90;;;;;;2080174;28;20078;-73
2021/08/26 04:16:22;;;;;;;7.38;4.60;;;13.70;99.90;;;;;;2080251;28;20052;-72
2021/08/26 04:17:23;;;;;;;7.55;4.55;;;13.70;99.90;;;;;;2080260;28;20053;-72
2021/08/26 04:18:23;;;;;;;7.25;4.90;;;13.70;99.90;;;;;;2080127;28;20053;-73
2021/08/26 04:19:24;;;;;;;8.75;4.90;;;13.60;99.90;;;;;;2079408;28;20030;-72
2021/08/26 04:20:24;;;;;;;9.05;4.65;;;13.60;99.90;;;;;;2080036;28;20674;-72
2021/08/26 04:21:25;;;;;;;9.20;5.10;;;13.60;99.90;;;;;;2089036;28;20025;-73
2021/08/26 04:22:25;;;;;;;8.75;5.10;;;13.60;99.90;;;;;;2088996;28;20087;-72
2021/08/26 04:23:26;;;;;;;8.48;4.72;;;13.60;99.90;;;;;;2089048;28;20025;-72
2021/08/26 04:24:27;;;;;;;7.05;4.47;;;13.60;99.90;;;;;;2088860;28;20037;-72
2021/08/26 04:25:27;;;;;;;7.22;4.65;;;13.60;99.90;;;;;;2089041;28;20063;-72
2021/08/26 04:26:28;;;;;;;7.68;4.88;;;13.70;99.90;;;;;;2089003;28;20123;-72
2021/08/26 04:27:29;;;;;;;9.35;4.95;;;13.70;99.90;;;;;;2079772;28;20028;-73
2021/08/26 04:28:30;;;;;;;10.15;5.00;;;13.70;99.90;;;;;;2080024;28;20040;-72
2021/08/26 04:29:31;;;;;;;9.48;5.38;;;13.70;99.90;;;;;;2088208;28;20931;-72
2021/08/26 04:30:32;;;;;;;9.00;4.85;;;13.80;99.90;;;;;;2080242;28;20060;-73
2021/08/26 04:31:32;;;;;;;8.55;4.45;;;13.80;99.90;;;;;;2079811;28;20037;-72
2021/08/26 04:32:33;;;;;;;9.75;5.40;;;13.80;99.90;;;;;;2079993;28;20033;-72
2021/08/26 04:33:33;;;;;;;9.23;5.30;;;13.80;99.90;;;;;;2088394;28;20102;-72
2021/08/26 04:34:34;;;;;;;10.95;5.75;;;13.80;99.90;;;;;;2088249;28;20036;-72
2021/08/26 04:35:35;;;;;;;8.32;5.00;;;13.80;99.90;;;;;;2089024;28;20083;-72
2021/08/26 04:36:35;;;;;;;8.95;5.20;;;13.70;99.90;;;;;;2080005;28;20132;-71
2021/08/26 04:37:36;;;;;;;10.05;5.30;;;13.70;99.90;;;;;;2080156;28;20117;-72
2021/08/26 04:38:36;;;;;;;9.60;5.20;;;13.80;99.90;;;;;;2088916;28;20020;-72
2021/08/26 04:39:37;;;;;;;7.47;4.95;;;13.80;99.90;;;;;;2088566;28;20036;-73
2021/08/26 04:40:38;;;;;;;11.60;5.85;;;13.80;99.90;;;;;;2090619;28;20428;-73
2021/08/26 04:41:38;;;;;;;8.23;4.93;;;13.80;99.90;;;;;;2090630;28;20028;-72
2021/08/26 04:42:39;;;;;;;9.98;5.45;;;13.80;99.90;;;;;;2089522;28;20020;-72
2021/08/26 04:43:39;;;;;;;10.75;5.53;;;13.80;99.90;;;;;;2089651;28;20040;-72
2021/08/26 04:44:40;;;;;;;6.65;5.05;;;13.80;99.90;;;;;;2090884;28;20025;-73
2021/08/26 04:45:41;;;;;;;7.25;5.38;;;13.80;99.90;;;;;;2090609;28;20049;-72
2021/08/26 04:46:41;;;;;;;9.60;5.90;;;13.80;99.90;;;;;;2090240;28;20453;-72
2021/08/26 04:47:42;;;;;;;13.90;7.10;;;13.90;99.90;;;;;;2095623;28;20020;-73
2021/08/26 04:48:43;;;;;;;10.20;6.00;;;13.90;99.90;;;;;;2093900;28;20028;-71
2021/08/26 04:49:43;;;;;;;8.95;5.95;;;13.80;99.90;;;;;;2090897;28;20029;-72
2021/08/26 04:50:44;;;;;;;10.80;6.18;;;13.80;99.90;;;;;;2090695;28;20195;-72
2021/08/26 04:51:44;;;;;;;10.23;6.15;;;13.70;99.90;;;;;;2084687;28;20048;-73
2021/08/26 04:52:45;;;;;;;12.02;6.68;;;13.70;99.90;;;;;;2088167;28;20028;-71
2021/08/26 04:53:45;;;;;;;12.43;6.60;;;13.70;99.90;;;;;;2093220;28;20052;-72
2021/08/26 04:54:46;;;;;;;19.00;7.55;;;13.70;99.90;;;;;;2091753;28;20060;-71
2021/08/26 04:55:46;;;;;;;14.35;7.38;;;13.70;99.90;;;;;;2091907;28;20056;-72
2021/08/26 04:56:47;;;;;;;13.30;7.18;;;13.70;99.90;;;;;;2081817;28;20079;-72
2021/08/26 04:57:47;;;;;;;10.30;6.97;;;13.70;99.90;;;;;;2080686;28;20034;-71
2021/08/26 04:58:48;;;;;;;9.98;6.60;;;13.70;99.90;;;;;;2079900;28;20072;-71
2021/08/26 04:59:49;;;;;;;12.35;7.07;;;13.80;99.90;;;;;;2088764;28;20060;-72
2021/08/26 05:00:49;;;;;;;11.43;6.85;;;13.80;99.90;;;;;;2088843;28;20025;-72
2021/08/26 05:01:50;;;;;;;12.40;7.13;;;13.90;99.90;;;;;;2089689;28;20416;-71
2021/08/26 05:02:50;;;;;;;20.40;8.65;;;13.90;99.90;;;;;;2088841;28;20036;-71
2021/08/26 05:03:51;;;;;;;16.10;8.18;;;13.90;99.90;;;;;;2088859;28;20036;-71
2021/08/26 05:04:51;;;;;;;18.67;8.35;;;13.80;99.90;;;;;;2088658;28;20033;-70
2021/08/26 05:05:52;;;;;;;14.38;8.05;;;13.80;99.90;;;;;;2088763;28;20017;-70
2021/08/26 05:06:53;;;;;;;17.30;7.68;;;13.80;99.90;;;;;;2088830;28;20057;-70
2021/08/26 05:07:53;;;;;;;11.30;7.85;;;13.70;99.90;;;;;;2088791;28;20495;-71
2021/08/26 05:08:54;;;;;;;12.95;7.80;;;13.70;99.90;;;;;;2079064;28;20768;-71
2021/08/26 05:09:54;;;;;;;11.75;7.20;;;13.70;99.90;;;;;;2079734;28;20040;-71
2021/08/26 05:10:55;;;;;;;13.60;7.18;;;13.70;99.90;;;;;;2088771;28;20400;-70
2021/08/26 05:12:00;;;;;;;11.77;6.95;;;13.80;99.90;;;;;;2090039;28;20028;-75
2021/08/26 05:13:01;;;;;;;10.95;7.40;;;13.80;99.90;;;;;;2080942;28;20037;-75
2021/08/26 05:14:02;;;;;;;17.05;8.57;;;13.80;99.90;;;;;;2081089;28;20321;-75
2021/08/26 05:15:03;;;;;;;18.13;8.05;;;13.80;99.90;;;;;;2080856;28;20083;-73
2021/08/26 05:16:09;;;;;;;19.65;8.27;;;13.70;99.90;;;;;;2089489;28;20096;-73
2021/08/26 05:17:19;;;;;;;17.33;8.30;;;13.70;99.90;;;;;;2089510;28;20124;-72
2021/08/26 05:18:20;;;;;;;13.13;7.93;;;13.70;99.90;;;;;;2081065;28;20032;-71
2021/08/26 05:19:21;;;;;;;16.88;8.07;;;13.60;99.90;;;;;;2080280;28;20017;-70
2021/08/26 05:20:21;;;;;;;21.42;8.45;;;13.60;99.90;;;;;;2090220;28;20362;-71
2021/08/26 05:21:22;;;;;;;14.15;8.13;;;13.60;99.90;;;;;;2089985;28;20021;-72
2021/08/26 05:22:23;;;;;;;21.52;8.63;;;13.60;99.90;;;;;;2089664;28;20033;-72
2021/08/26 05:23:29;;;;;;;20.65;8.63;;;13.60;99.90;;;;;;2081102;28;20088;-72
2021/08/26 05:24:30;;;;;;;19.23;8.88;;;13.60;99.90;;;;;;2081784;28;20128;-75